Time;durP1;ratioP1;P1;durP2;ratioP2;P2;SDS_P1;SDS_P2;PMS_P1;PMS_P2;Temp;Humidity;BMP_temperature;BMP_pressure;BME280_temperature;BME280_humidity;BME280_pressure;Samples;Min_cycle;Max_cycle;Signal;HPM_P1;HPM_P2
2021/08/19 00:00:23;;;;;;;;;2.75;2.00;;;;;19.84;65.45;101458.16;4942301;28;45675;-69
2021/08/19 00:02:48;;;;;;;;;2.00;2.00;;;;;19.82;65.57;101454.84;4939229;28;46058;-70
2021/08/19 00:05:14;;;;;;;;;2.25;2.25;;;;;19.81;65.39;101453.19;4944484;28;45565;-71
2021/08/19 00:07:39;;;;;;;;;3.00;2.25;;;;;19.81;65.03;101456.72;4940315;28;45537;-71
2021/08/19 00:10:06;;;;;;;;;5.00;2.50;;;;;19.78;65.66;101451.69;4945014;28;45447;-68
2021/08/19 00:12:31;;;;;;;;;2.50;2.25;;;;;19.77;65.48;101458.09;4934476;28;46110;-72
2021/08/19 00:14:57;;;;;;;;;3.00;3.00;;;;;19.75;65.53;101458.28;4935169;28;45721;-68
2021/08/19 00:17:22;;;;;;;;;5.00;1.50;;;;;19.76;65.30;101453.78;4941872;28;45568;-68
2021/08/19 00:19:47;;;;;;;;;2.75;2.00;;;;;19.74;65.75;101445.09;4942387;28;47300;-70
2021/08/19 00:22:13;;;;;;;;;2.00;2.00;;;;;19.73;65.59;101448.78;4927122;28;47925;-69
2021/08/19 00:24:38;;;;;;;;;1.50;1.50;;;;;19.72;65.97;101449.81;4948647;28;45895;-68
2021/08/19 00:27:04;;;;;;;;;3.75;2.75;;;;;19.70;65.83;101446.47;4932404;28;45655;-68
2021/08/19 00:29:29;;;;;;;;;3.25;2.25;;;;;19.69;65.91;101437.63;4947705;28;45464;-70
2021/08/19 00:31:54;;;;;;;;;4.00;3.00;;;;;19.68;65.50;101441.34;4948480;28;46309;-70
2021/08/19 00:34:20;;;;;;;;;3.00;2.50;;;;;19.66;65.32;101434.47;4944376;28;45565;-68
2021/08/19 00:36:45;;;;;;;;;2.00;2.00;;;;;19.66;66.16;101434.47;4954637;28;45631;-69
2021/08/19 00:39:10;;;;;;;;;1.75;1.75;;;;;19.64;65.76;101433.81;4946171;28;45640;-72
2021/08/19 00:41:37;;;;;;;;;2.50;2.50;;;;;19.63;65.52;101426.78;4943479;28;46117;-68
2021/08/19 00:44:03;;;;;;;;;2.00;2.00;;;;;19.61;66.12;101416.28;4945662;28;45749;-69
2021/08/19 00:46:30;;;;;;;;;1.25;1.25;;;;;19.59;66.22;101417.50;4949712;28;45580;-69
2021/08/19 00:49:03;;;;;;;;;2.25;2.25;;;;;19.55;66.29;101417.84;4948438;28;45530;-68
2021/08/19 00:51:34;;;;;;;;;3.00;2.25;;;;;19.53;66.82;101427.97;4947152;28;47506;-68
2021/08/19 00:54:01;;;;;;;;;2.00;2.00;;;;;19.51;66.56;101424.63;4947934;28;45487;-69
2021/08/19 00:56:27;;;;;;;;;2.00;1.00;;;;;19.50;66.68;101422.97;4945120;28;45558;-69
2021/08/19 00:58:57;;;;;;;;;3.25;2.25;;;;;19.46;66.48;101419.03;4947053;28;46040;-72
2021/08/19 01:01:22;;;;;;;;;2.25;2.00;;;;;19.44;66.25;101426.41;4946132;28;47505;-69
2021/08/19 01:03:48;;;;;;;;;5.00;2.75;;;;;19.41;66.33;101418.78;4932627;28;45522;-67
2021/08/19 01:06:13;;;;;;;;;2.00;2.00;;;;;19.38;65.96;101421.81;4960647;28;45481;-69
2021/08/19 01:08:38;;;;;;;;;2.25;2.25;;;;;19.37;66.27;101416.66;4949842;28;45878;-67
2021/08/19 01:11:04;;;;;;;;;2.00;2.00;;;;;19.36;66.43;101415.81;4949343;28;46148;-67
2021/08/19 01:13:29;;;;;;;;;1.50;1.50;;;;;19.36;67.01;101417.66;4969118;28;45425;-67
2021/08/19 01:15:55;;;;;;;;;2.25;2.25;;;;;19.34;66.67;101413.34;4943017;28;45561;-69
2021/08/19 01:18:20;;;;;;;;;3.50;2.25;;;;;19.32;66.27;101422.59;4961471;28;45458;-69
2021/08/19 01:20:46;;;;;;;;;2.75;2.75;;;;;19.28;66.46;101408.72;4953838;28;45855;-67
2021/08/19 01:23:11;;;;;;;;;2.75;2.75;;;;;19.27;66.59;101411.59;4951611;28;45496;-69
2021/08/19 01:25:36;;;;;;;;;1.25;1.25;;;;;19.24;66.30;101412.81;4947277;28;45479;-67
2021/08/19 01:28:02;;;;;;;;;2.75;2.75;;;;;19.23;66.20;101416.50;4953085;28;45429;-69
2021/08/19 01:30:27;;;;;;;;;2.75;2.00;;;;;19.21;66.28;101404.31;4945713;28;45493;-69
2021/08/19 01:32:53;;;;;;;;;3.00;2.50;;;;;19.20;66.35;101408.03;4951560;28;45365;-70
2021/08/19 01:35:29;;;;;;;;;2.00;2.00;;;;;19.18;65.99;101402.03;4943688;28;45615;-67
2021/08/19 01:37:55;;;;;;;;;2.00;2.00;;;;;19.17;65.93;101405.72;4964861;28;45292;-69
2021/08/19 01:40:20;;;;;;;;;1.00;1.00;;;;;19.15;66.34;101402.41;4947816;28;45497;-67
2021/08/19 01:42:46;;;;;;;;;2.00;0.75;;;;;19.15;66.03;101402.41;4948756;28;46058;-67
2021/08/19 01:45:18;;;;;;;;;1.50;1.50;;;;;19.13;66.29;101395.38;4947508;28;45567;-71
2021/08/19 01:47:45;;;;;;;;;3.00;2.00;;;;;19.13;65.84;101398.06;4944429;28;45598;-68
2021/08/19 01:50:10;;;;;;;;;4.25;1.75;;;;;19.12;65.97;101400.94;4943037;28;47346;-69
2021/08/19 01:52:36;;;;;;;;;1.75;1.75;;;;;19.12;65.82;101395.56;4949812;28;45641;-72
2021/08/19 01:55:02;;;;;;;;;2.00;2.00;;;;;19.11;65.72;101402.78;4949339;28;45507;-72
2021/08/19 01:57:28;;;;;;;;;2.75;1.75;;;;;19.10;65.82;101401.13;4945919;28;45544;-67
2021/08/19 01:59:54;;;;;;;;;1.75;1.75;;;;;19.08;66.17;101394.28;4953176;28;46592;-69
2021/08/19 02:02:19;;;;;;;;;2.00;2.00;;;;;19.07;65.91;101403.34;4954690;28;45510;-69
2021/08/19 02:04:44;;;;;;;;;3.25;2.00;;;;;19.05;66.12;101403.53;4944885;28;45580;-69
2021/08/19 02:07:09;;;;;;;;;2.25;2.25;;;;;19.05;66.52;101408.06;4945777;28;47921;-67
2021/08/19 02:09:35;;;;;;;;;1.75;1.75;;;;;19.04;66.34;101406.38;4945529;28;46175;-69
2021/08/19 02:12:02;;;;;;;;;4.75;2.00;;;;;19.02;66.07;101398.56;4948251;28;45727;-71
2021/08/19 02:14:27;;;;;;;;;3.50;1.50;;;;;19.02;66.21;101395.88;4950100;28;45507;-68
2021/08/19 02:16:52;;;;;;;;;3.00;2.50;;;;;19.00;65.94;101397.91;4945025;28;45325;-69
2021/08/19 02:19:18;;;;;;;;;2.75;1.75;;;;;19.00;66.20;101394.41;4932422;28;48874;-69
2021/08/19 02:21:43;;;;;;;;;3.25;3.00;;;;;18.98;66.16;101397.25;4944933;28;45761;-68
2021/08/19 02:24:08;;;;;;;;;3.00;1.75;;;;;18.99;66.16;101401.63;4946113;28;45557;-72
2021/08/19 02:26:34;;;;;;;;;1.25;1.25;;;;;18.96;66.04;101401.97;4943584;28;45802;-72
2021/08/19 02:28:59;;;;;;;;;2.25;2.25;;;;;18.96;66.25;101398.47;4948763;28;45631;-68
2021/08/19 02:31:24;;;;;;;;;2.00;2.00;;;;;18.95;66.13;101396.81;4944759;28;45471;-70
2021/08/19 02:33:50;;;;;;;;;3.75;2.00;;;;;18.94;65.80;101389.78;4957541;28;45500;-67
2021/08/19 02:36:15;;;;;;;;;1.75;1.25;;;;;18.93;65.79;101390.81;4950712;28;45550;-67
2021/08/19 02:38:40;;;;;;;;;1.75;1.75;;;;;18.91;65.65;101391.00;4946413;28;46018;-69
2021/08/19 02:41:06;;;;;;;;;2.25;2.25;;;;;18.89;65.98;101391.22;4951178;28;45433;-67
2021/08/19 02:43:31;;;;;;;;;2.50;2.00;;;;;18.88;65.86;101386.84;4957518;28;45629;-67
2021/08/19 02:45:57;;;;;;;;;2.25;2.25;;;;;18.87;65.92;101379.84;4955575;28;45487;-69
2021/08/19 02:48:22;;;;;;;;;2.00;1.00;;;;;18.85;66.06;101376.53;4932255;28;56708;-68
2021/08/19 02:50:47;;;;;;;;;2.00;2.00;;;;;18.85;65.99;101373.84;4941055;28;45435;-68
2021/08/19 02:53:13;;;;;;;;;1.50;1.00;;;;;18.83;65.97;101378.56;4952799;28;45461;-69
2021/08/19 02:55:38;;;;;;;;;1.00;1.00;;;;;18.82;66.03;101376.91;4950027;28;45547;-72
2021/08/19 02:58:03;;;;;;;;;2.75;2.75;;;;;18.81;66.07;101374.41;4929174;28;46903;-68
2021/08/19 03:00:29;;;;;;;;;2.00;2.00;;;;;18.80;66.09;101367.41;4947114;28;45511;-72
2021/08/19 03:02:54;;;;;;;;;3.00;1.50;;;;;18.77;65.88;101373.97;4950987;28;45470;-67
2021/08/19 03:05:19;;;;;;;;;2.25;2.25;;;;;18.73;66.01;101358.44;4946754;28;45488;-67
2021/08/19 03:07:45;;;;;;;;;1.25;1.25;;;;;18.74;65.62;101362.75;4945954;28;45527;-67
2021/08/19 03:10:10;;;;;;;;;1.50;1.50;;;;;18.74;65.99;101362.75;4947394;28;52517;-67
2021/08/19 03:12:36;;;;;;;;;2.50;2.50;;;;;18.70;65.93;101368.50;4944620;28;45594;-72
2021/08/19 03:15:01;;;;;;;;;2.00;2.00;;;;;18.69;65.93;101369.53;4942246;28;45414;-71
2021/08/19 03:17:28;;;;;;;;;2.50;1.75;;;;;18.68;65.69;101365.16;4923895;28;47039;-69
2021/08/19 03:19:53;;;;;;;;;2.00;2.00;;;;;18.66;66.21;101359.16;4945539;28;45451;-72
2021/08/19 03:22:19;;;;;;;;;0.50;0.50;;;;;18.65;66.04;101357.50;4928385;28;45679;-71
2021/08/19 03:24:45;;;;;;;;;3.50;2.75;;;;;18.66;66.10;101366.38;4934950;28;45451;-68
2021/08/19 03:27:11;;;;;;;;;2.00;2.00;;;;;18.64;66.20;101363.91;4941944;28;46176;-72
2021/08/19 03:29:36;;;;;;;;;1.75;1.75;;;;;18.66;66.15;101367.19;4941988;28;45644;-69
2021/08/19 03:32:02;;;;;;;;;1.50;1.50;;;;;18.68;66.38;101361.66;4945596;28;45495;-68
2021/08/19 03:34:27;;;;;;;;;1.75;1.75;;;;;18.67;65.71;101368.88;4929516;28;45448;-69
2021/08/19 03:36:54;;;;;;;;;2.75;2.75;;;;;18.67;66.14;101363.53;4949321;28;45590;-70
2021/08/19 03:39:20;;;;;;;;;2.25;2.25;;;;;18.67;66.09;101362.69;4949006;28;45697;-67
2021/08/19 03:41:45;;;;;;;;;1.50;1.50;;;;;18.68;65.89;101364.34;4948825;28;45532;-68
2021/08/19 03:44:13;;;;;;;;;2.50;2.00;;;;;18.69;65.81;101364.16;4950565;28;45603;-71
2021/08/19 03:46:38;;;;;;;;;2.25;1.50;;;;;18.69;65.74;101366.84;4931809;28;48157;-69
2021/08/19 03:49:04;;;;;;;;;3.00;3.00;;;;;18.68;65.93;101357.13;4947687;28;45583;-69
2021/08/19 03:51:29;;;;;;;;;2.25;2.25;;;;;18.68;65.69;101351.78;4943049;28;45599;-71
2021/08/19 03:53:56;;;;;;;;;2.25;2.25;;;;;18.69;66.24;101357.97;4954714;28;45599;-72
2021/08/19 03:56:22;;;;;;;;;1.75;1.25;;;;;18.68;65.91;101354.47;4941591;28;46250;-67
2021/08/19 03:58:47;;;;;;;;;1.50;1.50;;;;;18.69;65.99;101361.50;4949257;28;45460;-69
2021/08/19 04:01:12;;;;;;;;;3.50;2.25;;;;;18.68;65.70;101357.13;4947864;28;45485;-67
2021/08/19 04:03:38;;;;;;;;;1.50;1.50;;;;;18.67;65.74;101362.69;4946792;28;45511;-72
2021/08/19 04:06:03;;;;;;;;;1.75;1.75;;;;;18.66;66.27;101361.84;4940594;28;46020;-70
2021/08/19 04:08:29;;;;;;;;;2.25;2.25;;;;;18.65;66.00;101354.84;4940701;28;45650;-69
2021/08/19 04:10:54;;;;;;;;;1.50;0.75;;;;;18.64;66.29;101353.19;4946798;28;45484;-72
2021/08/19 04:13:19;;;;;;;;;3.00;2.50;;;;;18.64;66.31;101353.19;4941860;28;45507;-70
2021/08/19 04:15:45;;;;;;;;;2.00;2.00;;;;;18.63;65.86;101346.16;4928363;28;45616;-69
2021/08/19 04:18:10;;;;;;;;;1.50;1.50;;;;;18.63;65.91;101339.97;4947142;28;45939;-67
2021/08/19 04:20:36;;;;;;;;;3.50;2.75;;;;;18.62;66.55;101349.00;4946353;28;45386;-70
2021/08/19 04:23:01;;;;;;;;;1.25;1.25;;;;;18.63;66.91;101350.69;4953628;28;45528;-68
2021/08/19 04:25:27;;;;;;;;;1.50;1.50;;;;;18.61;66.57;101353.53;4950360;28;45479;-67
2021/08/19 04:27:52;;;;;;;;;3.25;3.25;;;;;18.62;67.27;101349.88;4950392;28;45499;-67
2021/08/19 04:30:18;;;;;;;;;4.00;2.75;;;;;18.61;66.85;101356.22;4947337;28;45524;-69
2021/08/19 04:32:43;;;;;;;;;1.75;1.75;;;;;18.60;66.78;101357.25;4952416;28;45465;-67
2021/08/19 04:35:09;;;;;;;;;2.00;1.50;;;;;18.58;66.27;101353.94;4945003;28;45542;-72
2021/08/19 04:37:35;;;;;;;;;2.00;2.00;;;;;18.57;67.18;101352.28;4949083;28;45591;-69
2021/08/19 04:40:04;;;;;;;;;3.00;3.00;;;;;18.55;67.10;101348.94;4952886;28;45896;-69
2021/08/19 04:42:29;;;;;;;;;2.75;2.75;;;;;18.55;66.93;101342.78;4930681;28;45472;-69
2021/08/19 04:44:55;;;;;;;;;1.50;1.50;;;;;18.53;66.63;101348.31;4946015;28;47037;-68
2021/08/19 04:47:20;;;;;;;;;4.75;3.25;;;;;18.51;66.50;101342.31;4946874;28;45554;-67
2021/08/19 04:49:46;;;;;;;;;2.75;2.75;;;;;18.52;66.57;101349.34;4945166;28;45511;-72
2021/08/19 04:52:11;;;;;;;;;1.75;1.75;;;;;18.52;67.34;101346.66;4935449;28;45779;-72
2021/08/19 04:54:36;;;;;;;;;3.25;3.00;;;;;18.53;66.86;101352.84;4950547;28;45536;-70
2021/08/19 04:57:02;;;;;;;;;3.50;2.25;;;;;18.54;66.56;101357.16;4944215;28;48834;-67
2021/08/19 04:59:27;;;;;;;;;2.50;1.50;;;;;18.55;66.68;101365.00;4947648;28;45652;-72
2021/08/19 05:01:52;;;;;;;;;4.00;3.00;;;;;18.56;66.42;101361.31;4947974;28;45504;-67
2021/08/19 05:04:18;;;;;;;;;4.00;3.00;;;;;18.57;66.67;101356.78;4951311;28;45980;-70
2021/08/19 05:06:43;;;;;;;;;2.75;2.75;;;;;18.59;66.63;101365.44;4954773;28;45559;-68
2021/08/19 05:09:09;;;;;;;;;2.50;2.50;;;;;18.61;66.78;101366.94;4958804;28;45461;-70
2021/08/19 05:11:35;;;;;;;;;3.25;2.50;;;;;18.63;66.57;101366.75;4945833;28;45654;-69
2021/08/19 05:14:03;;;;;;;;;4.00;2.75;;;;;18.63;66.49;101372.94;4951271;28;45495;-69
2021/08/19 05:16:29;;;;;;;;;3.25;3.25;;;;;18.65;66.31;101370.06;4949719;28;45581;-68
2021/08/19 05:18:55;;;;;;;;;3.00;2.50;;;;;18.66;66.75;101375.22;4949081;28;45522;-69
2021/08/19 05:21:20;;;;;;;;;2.75;2.00;;;;;18.69;66.23;101374.88;4951663;28;45569;-72
2021/08/19 05:23:46;;;;;;;;;3.25;3.25;;;;;18.70;66.65;101373.84;4945295;28;45514;-72
2021/08/19 05:26:12;;;;;;;;;3.00;3.00;;;;;18.71;66.50;101374.66;4949336;28;45468;-72
2021/08/19 05:28:37;;;;;;;;;2.50;2.50;;;;;18.73;66.84;101377.16;4944932;28;45558;-68
2021/08/19 05:31:02;;;;;;;;;3.75;3.75;;;;;18.74;66.81;101376.13;4947967;28;45416;-67
2021/08/19 05:33:28;;;;;;;;;3.00;3.00;;;;;18.78;66.74;101380.16;4944407;28;45562;-67
2021/08/19 05:35:53;;;;;;;;;4.00;4.00;;;;;18.79;66.40;101373.75;4945691;28;45544;-70
2021/08/19 05:38:19;;;;;;;;;2.50;2.50;;;;;18.79;66.56;101381.78;4952543;28;45563;-68
2021/08/19 05:40:44;;;;;;;;;3.00;3.00;;;;;18.79;67.08;101376.44;4954813;28;45630;-69
2021/08/19 05:43:09;;;;;;;;;3.50;3.50;;;;;18.82;67.03;101381.44;4944434;28;46181;-69
2021/08/19 05:45:35;;;;;;;;;4.00;4.00;;;;;18.83;66.66;101377.72;4942371;28;45467;-67
2021/08/19 05:48:04;;;;;;;;;2.50;0.50;;;;;18.84;66.58;101384.72;4938474;28;45658;-69
2021/08/19 05:50:35;;;;;;;;;4.75;3.50;;;;;18.86;66.55;101377.34;4936986;28;45607;-67
2021/08/19 05:53:01;;;;;;;;;6.75;5.50;;;;;18.86;66.86;101388.88;4934348;28;46038;-69
2021/08/19 05:55:26;;;;;;;;;3.75;3.00;;;;;18.88;67.32;101391.38;4938274;28;45564;-67
2021/08/19 05:57:52;;;;;;;;;5.00;4.50;;;;;18.90;66.43;101384.00;4936246;28;45736;-67
2021/08/19 06:00:20;;;;;;;;;5.75;4.00;;;;;18.90;66.35;101386.69;4936493;28;45724;-70
2021/08/19 06:02:47;;;;;;;;;3.50;3.50;;;;;18.91;66.05;101391.00;4932953;28;45961;-68
2021/08/19 06:05:12;;;;;;;;;4.75;4.00;;;;;18.91;66.65;101380.28;4937095;28;45537;-71
2021/08/19 06:07:38;;;;;;;;;5.00;5.00;;;;;18.93;66.85;101382.78;4935896;28;45761;-67
2021/08/19 06:10:04;;;;;;;;;5.50;5.00;;;;;18.96;66.65;101377.06;4945170;28;45522;-67
2021/08/19 06:12:30;;;;;;;;;7.00;5.50;;;;;18.96;66.37;101377.06;4941739;28;45534;-65
2021/08/19 06:14:55;;;;;;;;;3.25;3.25;;;;;18.96;65.27;101383.22;4935489;28;45454;-66
2021/08/19 06:17:21;;;;;;;;;5.00;5.00;;;;;18.96;66.22;101379.72;4939367;28;45940;-69
2021/08/19 06:19:46;;;;;;;;;5.75;3.75;;;;;18.96;66.99;101383.22;4931146;28;45511;-69
2021/08/19 06:22:11;;;;;;;;;5.75;4.25;;;;;18.97;66.78;101379.56;4941481;28;47133;-69
2021/08/19 06:24:37;;;;;;;;;7.25;5.25;;;;;19.00;66.94;101384.53;4940856;28;45574;-68
2021/08/19 06:27:02;;;;;;;;;5.50;4.75;;;;;19.00;66.62;101379.16;4940719;28;45529;-69
2021/08/19 06:29:28;;;;;;;;;6.00;4.50;;;;;19.05;66.37;101376.75;4943137;28;45566;-66
2021/08/19 06:31:53;;;;;;;;;4.75;3.50;;;;;19.07;66.19;101377.38;4925036;28;48368;-67
2021/08/19 06:34:18;;;;;;;;;6.00;6.00;;;;;19.11;65.86;101376.00;4960256;28;45533;-67
2021/08/19 06:36:44;;;;;;;;;6.00;5.00;;;;;19.14;65.53;101374.78;4944532;28;45719;-70
2021/08/19 06:39:10;;;;;;;;;4.75;3.75;;;;;19.15;65.60;101370.25;4934356;28;45602;-69
2021/08/19 06:41:35;;;;;;;;;5.75;4.00;;;;;19.18;65.43;101376.06;4936210;28;46004;-70
2021/08/19 06:44:00;;;;;;;;;5.00;4.75;;;;;19.23;66.08;101381.66;4939310;28;45985;-67
2021/08/19 06:46:26;;;;;;;;;5.25;4.50;;;;;19.28;66.18;101378.41;4952004;28;45451;-75
2021/08/19 06:48:51;;;;;;;;;5.25;4.00;;;;;19.31;65.23;101375.34;4933616;28;45531;-66
2021/08/19 06:51:16;;;;;;;;;4.25;3.50;;;;;19.34;65.15;101377.66;4942904;28;46874;-72
2021/08/19 06:53:42;;;;;;;;;6.00;5.75;;;;;19.39;65.29;101375.25;4935765;28;45937;-72
2021/08/19 06:56:07;;;;;;;;;4.00;4.00;;;;;19.43;65.02;101378.34;4946709;28;45476;-72
2021/08/19 06:58:33;;;;;;;;;4.50;3.00;;;;;19.46;64.45;101380.63;4948936;28;45583;-71
2021/08/19 07:00:58;;;;;;;;;4.75;4.75;;;;;19.48;65.21;101375.91;4949214;28;46151;-67
2021/08/19 07:03:24;;;;;;;;;4.25;4.00;;;;;19.50;64.80;101384.59;4947868;28;45565;-70
2021/08/19 07:05:49;;;;;;;;;5.00;4.25;;;;;19.52;64.60;101382.56;4938196;28;45389;-67
2021/08/19 07:08:15;;;;;;;;;6.75;5.25;;;;;19.54;64.35;101383.22;4939665;28;45641;-69
2021/08/19 07:10:42;;;;;;;;;5.00;5.00;;;;;19.54;64.61;101375.16;4942493;28;45598;-69
2021/08/19 07:13:08;;;;;;;;;6.75;5.00;;;;;19.59;64.55;101385.31;4953372;28;45588;-69
2021/08/19 07:15:33;;;;;;;;;4.00;4.00;;;;;19.63;64.22;101384.72;4952265;28;45501;-69
2021/08/19 07:17:59;;;;;;;;;5.50;5.50;;;;;19.66;64.23;101384.34;4943548;28;45492;-71
2021/08/19 07:20:24;;;;;;;;;4.50;4.50;;;;;19.69;64.21;101380.47;4949882;28;45494;-66
2021/08/19 07:22:50;;;;;;;;;5.00;5.00;;;;;19.73;64.94;101381.72;4944146;28;45557;-67
2021/08/19 07:25:16;;;;;;;;;5.00;4.75;;;;;19.76;64.27;101384.88;4945015;28;45817;-72
2021/08/19 07:27:43;;;;;;;;;6.25;4.75;;;;;19.81;64.01;101378.94;4935637;28;45599;-69
2021/08/19 07:30:10;;;;;;;;;4.00;4.00;;;;;19.85;64.40;101380.19;4933951;28;46326;-68
2021/08/19 07:32:35;;;;;;;;;8.00;6.25;;;;;19.91;63.72;101382.09;4946412;28;45534;-67
2021/08/19 07:35:01;;;;;;;;;6.00;6.00;;;;;19.95;63.27;101372.66;4939242;28;45945;-71
2021/08/19 07:37:27;;;;;;;;;5.75;5.75;;;;;20.04;63.44;101377.84;4936667;28;45588;-73
2021/08/19 07:39:52;;;;;;;;;9.00;5.00;;;;;20.12;63.12;101372.31;4942323;28;45577;-68
2021/08/19 07:42:18;;;;;;;;;4.50;3.25;;;;;20.13;62.97;101379.34;4946587;28;45459;-74
2021/08/19 07:44:43;;;;;;;;;8.00;7.00;;;;;20.13;62.86;101369.44;4942941;28;45696;-68
2021/08/19 07:47:08;;;;;;;;;5.50;5.00;;;;;20.13;61.63;101368.63;4942027;28;45581;-67
2021/08/19 07:49:35;;;;;;;;;5.25;5.00;;;;;20.10;62.28;101366.31;4957795;28;46314;-69
2021/08/19 07:52:00;;;;;;;;;7.50;5.00;;;;;20.15;62.92;101372.78;4943366;28;45532;-66
2021/08/19 07:54:26;;;;;;;;;5.75;4.00;;;;;20.32;62.79;101372.44;4935245;28;45690;-67
2021/08/19 07:56:51;;;;;;;;;7.00;4.50;;;;;20.44;61.30;101367.34;4926543;28;46460;-72
2021/08/19 07:59:17;;;;;;;;;5.50;5.50;;;;;20.44;61.82;101364.66;4944542;28;45360;-67
2021/08/19 08:01:42;;;;;;;;;6.25;5.25;;;;;20.50;62.33;101379.94;4941228;28;45421;-65
2021/08/19 08:04:08;;;;;;;;;6.50;5.00;;;;;20.54;61.43;101371.31;4942984;28;45492;-68
2021/08/19 08:06:34;;;;;;;;;5.75;4.75;;;;;20.57;61.20;101383.53;4943681;28;46201;-67
2021/08/19 08:09:00;;;;;;;;;5.75;4.25;;;;;20.58;61.44;101377.16;4937736;28;46308;-71
2021/08/19 08:11:25;;;;;;;;;7.00;5.00;;;;;20.59;61.43;101378.78;4941910;28;45635;-69
2021/08/19 08:13:51;;;;;;;;;7.50;5.00;;;;;20.58;61.49;101377.97;4953671;28;45554;-67
2021/08/19 08:16:16;;;;;;;;;5.75;5.75;;;;;20.60;61.89;101375.09;4935038;28;45677;-68
2021/08/19 08:18:41;;;;;;;;;5.50;5.25;;;;;20.66;61.25;101384.19;4941350;28;46338;-67
2021/08/19 08:21:09;;;;;;;;;7.00;6.50;;;;;20.72;61.54;101378.00;4949593;28;45445;-67
2021/08/19 08:23:36;;;;;;;;;7.25;5.25;;;;;20.78;61.03;101386.09;4943215;28;50793;-65
2021/08/19 08:26:03;;;;;;;;;6.50;5.00;;;;;20.83;61.23;101386.31;4943364;28;45467;-68
2021/08/19 08:28:31;;;;;;;;;9.00;7.25;;;;;20.87;60.86;101386.78;4944705;28;46026;-72
2021/08/19 08:31:01;;;;;;;;;5.00;5.00;;;;;20.86;60.23;101390.47;4947417;28;45510;-71
2021/08/19 08:33:27;;;;;;;;;8.25;6.00;;;;;20.89;59.86;101383.88;4944639;28;45324;-70
2021/08/19 08:35:52;;;;;;;;;7.50;6.75;;;;;20.92;60.85;101394.19;4945480;28;45435;-72
2021/08/19 08:38:20;;;;;;;;;9.75;5.75;;;;;20.94;60.10;101392.97;4943259;28;46040;-67
2021/08/19 08:40:49;;;;;;;;;6.50;6.50;;;;;21.02;60.81;101395.50;4941481;28;45529;-74
2021/08/19 08:43:16;;;;;;;;;7.25;7.25;;;;;21.13;59.29;101399.44;4943634;28;46936;-68
2021/08/19 08:45:43;;;;;;;;;7.75;7.75;;;;;21.12;59.62;101389.72;4943865;28;45576;-71
2021/08/19 08:48:27;;;;;;;;;7.00;6.75;;;;;21.15;59.85;101393.88;4940998;28;45760;-74
2021/08/19 08:50:56;;;;;;;;;7.50;7.00;;;;;21.17;60.31;101392.63;4948404;28;45721;-70
2021/08/19 08:53:22;;;;;;;;;10.00;7.00;;;;;21.20;59.89;101394.91;4951664;28;45425;-71
2021/08/19 08:55:48;;;;;;;;;7.00;6.00;;;;;21.18;60.23;101399.66;4940755;28;46003;-67
2021/08/19 08:58:14;;;;;;;;;8.00;6.75;;;;;21.18;59.87;101398.84;4950582;28;46197;-69
2021/08/19 09:00:41;;;;;;;;;5.00;5.00;;;;;21.14;59.22;101398.44;4947080;28;45484;-68
2021/08/19 09:03:08;;;;;;;;;4.75;4.75;;;;;21.16;60.07;101395.50;4942435;28;45506;-67
2021/08/19 09:05:45;;;;;;;;;7.25;5.50;;;;;21.20;59.27;101402.97;4953701;28;45530;-70
2021/08/19 09:08:16;;;;;;;;;8.00;6.25;;;;;21.19;60.03;101406.72;4947497;28;46281;-67
2021/08/19 09:10:42;;;;;;;;;5.00;5.00;;;;;21.15;59.59;101404.63;4949335;28;45453;-72
2021/08/19 09:13:18;;;;;;;;;6.00;6.00;;;;;21.10;59.57;101404.41;4948753;28;45421;-70
2021/08/19 09:15:47;;;;;;;;;5.75;5.00;;;;;21.04;60.14;101409.56;4950455;28;45470;-69
2021/08/19 09:18:27;;;;;;;;;6.25;5.75;;;;;21.01;59.24;101409.94;4950329;28;46114;-68
2021/08/19 09:20:53;;;;;;;;;6.50;6.25;;;;;20.98;59.93;101415.72;4938962;28;45660;-67
2021/08/19 09:23:18;;;;;;;;;6.50;5.00;;;;;20.99;59.89;101411.19;4952224;28;45565;-73
2021/08/19 09:25:45;;;;;;;;;5.75;5.00;;;;;20.95;60.12;101409.94;4952660;28;49739;-69
2021/08/19 09:28:24;;;;;;;;;6.75;6.00;;;;;20.97;60.44;101408.72;4950876;28;46892;-66
2021/08/19 09:30:54;;;;;;;;;6.00;6.00;;;;;21.04;59.58;101412.25;4956555;28;45424;-68
2021/08/19 09:33:25;;;;;;;;;7.25;4.50;;;;;21.11;59.55;101406.88;4953921;28;45457;-67
2021/08/19 09:35:53;;;;;;;;;6.50;5.00;;;;;21.15;58.84;101402.75;4943085;28;45519;-67
2021/08/19 09:38:21;;;;;;;;;6.00;5.00;;;;;21.15;59.54;101410.00;4958598;28;45391;-67
2021/08/19 09:41:08;;;;;;;;;6.00;5.00;;;;;21.16;59.04;101407.09;4947707;28;45861;-67
2021/08/19 09:43:51;;;;;;;;;7.25;6.00;;;;;21.16;58.53;101396.34;4951260;28;45709;-72
2021/08/19 09:46:35;;;;;;;;;8.25;5.50;;;;;21.12;58.45;101405.84;4948405;28;46015;-70
2021/08/19 09:49:02;;;;;;;;;4.75;4.00;;;;;21.11;59.18;101400.69;4946669;28;46969;-67
2021/08/19 09:51:28;;;;;;;;;6.00;5.00;;;;;21.11;59.08;101403.38;4964098;28;45546;-72
2021/08/19 09:53:57;;;;;;;;;5.00;5.00;;;;;21.03;58.62;101393.63;4950096;28;45547;-69
2021/08/19 09:56:36;;;;;;;;;5.25;4.75;;;;;20.91;58.70;101409.50;4943003;28;45452;-69
2021/08/19 09:59:23;;;;;;;;;5.25;5.00;;;;;20.80;59.32;101400.16;4952733;28;47122;-72
2021/08/19 10:01:51;;;;;;;;;5.00;3.50;;;;;20.81;59.78;101398.31;4944044;28;45573;-70
2021/08/19 10:04:17;;;;;;;;;6.25;5.75;;;;;20.85;60.46;101404.13;4958419;28;46671;-69
2021/08/19 10:06:43;;;;;;;;;5.75;5.25;;;;;20.90;59.74;101394.41;4950591;28;45569;-66
2021/08/19 10:09:08;;;;;;;;;6.00;4.00;;;;;20.94;59.41;101402.88;4947566;28;47352;-69
2021/08/19 10:11:34;;;;;;;;;5.00;4.50;;;;;21.00;59.85;101394.03;4958816;28;45402;-66
2021/08/19 10:14:03;;;;;;;;;4.00;4.00;;;;;21.00;59.13;101392.19;4950151;28;45582;-67
2021/08/19 10:16:30;;;;;;;;;5.00;4.00;;;;;21.01;59.41;101393.81;4954718;28;45478;-72
2021/08/19 10:19:00;;;;;;;;;6.00;3.00;;;;;21.04;58.93;101384.53;4944431;28;46268;-72
2021/08/19 10:21:28;;;;;;;;;4.00;4.00;;;;;21.07;59.51;101400.25;4946906;28;45873;-69
2021/08/19 10:23:55;;;;;;;;;8.50;4.00;;;;;21.08;59.50;101399.22;4947125;28;45587;-69
2021/08/19 10:26:21;;;;;;;;;4.25;3.00;;;;;21.10;58.60;101407.91;4954228;28;45459;-69
2021/08/19 10:28:48;;;;;;;;;5.25;4.00;;;;;21.15;59.24;101402.75;4949687;28;46288;-70
2021/08/19 10:31:36;;;;;;;;;4.00;4.00;;;;;21.20;58.89;101397.59;4949501;28;45872;-70
2021/08/19 10:34:02;;;;;;;;;3.50;3.00;;;;;21.30;58.27;101404.44;4950207;28;46084;-69
2021/08/19 10:36:31;;;;;;;;;4.50;4.00;;;;;21.38;58.65;101398.88;4950354;28;45937;-68
2021/08/19 10:39:17;;;;;;;;;5.00;4.00;;;;;21.45;57.98;101394.34;4951288;28;47180;-68
2021/08/19 10:41:43;;;;;;;;;4.75;3.25;;;;;21.47;58.27;101392.31;4952458;28;45535;-71
2021/08/19 10:44:10;;;;;;;;;3.75;3.75;;;;;21.52;58.09;101392.50;4952256;28;45432;-69
2021/08/19 10:46:50;;;;;;;;;5.00;3.25;;;;;21.58;58.23;101394.34;4945656;28;45735;-69
2021/08/19 10:49:33;;;;;;;;;4.00;3.25;;;;;21.66;57.84;101396.88;4941912;28;46231;-67
2021/08/19 10:52:07;;;;;;;;;4.00;4.00;;;;;21.66;58.13;101398.69;4949234;28;45597;-72
2021/08/19 10:54:35;;;;;;;;;4.75;3.50;;;;;21.65;57.59;101402.44;4943448;28;45602;-70
2021/08/19 10:57:32;;;;;;;;;6.00;5.25;;;;;21.61;56.33;101395.81;4949599;28;45553;-70
2021/08/19 10:59:58;;;;;;;;;4.00;3.75;;;;;21.47;57.43;101403.88;4949056;28;47044;-72
2021/08/19 11:02:41;;;;;;;;;6.00;4.75;;;;;21.50;57.45;101393.75;4949303;28;45686;-67
2021/08/19 11:05:10;;;;;;;;;5.00;4.25;;;;;21.53;57.17;101404.09;4944648;28;45462;-70
2021/08/19 11:07:46;;;;;;;;;6.00;4.50;;;;;21.48;56.59;101399.31;4942234;28;45463;-69
2021/08/19 11:10:19;;;;;;;;;4.00;4.00;;;;;21.41;57.62;101401.16;4939625;28;46004;-70
2021/08/19 11:12:45;;;;;;;;;5.00;3.00;;;;;21.39;57.89;101395.16;4945760;28;45464;-67
2021/08/19 11:15:11;;;;;;;;;4.75;3.75;;;;;21.36;57.81;101395.56;4947693;28;45452;-69
2021/08/19 11:17:38;;;;;;;;;3.50;3.50;;;;;21.29;57.97;101400.09;4946210;28;45755;-70
2021/08/19 11:20:46;;;;;;;;;4.00;4.00;;;;;21.24;58.42;101398.00;4926352;28;47538;-67
2021/08/19 11:23:12;;;;;;;;;4.25;4.25;;;;;21.26;57.75;101395.94;4858556;29;45616;-69